Time;durP1;ratioP1;P1;durP2;ratioP2;P2;SDS_P1;SDS_P2;PMS_P1;PMS_P2;Temp;Humidity;BMP_temperature;BMP_pressure;BME280_temperature;BME280_humidity;BME280_pressure;Samples;Min_cycle;Max_cycle;Signal;HPM_P1;HPM_P2
2023/04/15 00:01:27;;;;;;;6.57;5.80;;;;;;;;;;4967987;28;20452;-84
2023/04/15 00:03:54;;;;;;;5.93;5.43;;;;;;;;;;4950633;28;20543;-83
2023/04/15 00:06:21;;;;;;;6.87;5.10;;;;;;;;;;4975238;28;20598;-83
2023/04/15 00:08:47;;;;;;;11.27;6.00;;;;;;;;;;4976937;28;20761;-82
2023/04/15 00:11:13;;;;;;;5.90;5.40;;;;;;;;;;4980318;28;20940;-82
2023/04/15 00:13:40;;;;;;;6.57;6.07;;;;;;;;;;4979873;28;20484;-83
2023/04/15 00:16:07;;;;;;;5.43;5.10;;;;;;;;;;4980414;28;20575;-82
2023/04/15 00:18:33;;;;;;;8.63;6.07;;;;;;;;;;4983605;28;20440;-83
2023/04/15 00:20:59;;;;;;;9.33;5.77;;;;;;;;;;4983666;28;20434;-83
2023/04/15 00:23:25;;;;;;;6.90;6.17;;;;;;;;;;4973238;28;20468;-84
2023/04/15 00:25:51;;;;;;;5.77;5.50;;;;;;;;;;4955403;28;20433;-82
2023/04/15 00:28:18;;;;;;;6.30;5.90;;;;;;;;;;4973561;28;20477;-84
2023/04/15 00:30:44;;;;;;;10.60;6.40;;;;;;;;;;4978116;28;20798;-84
2023/04/15 00:33:10;;;;;;;6.07;5.77;;;;;;;;;;4970150;28;20449;-83
2023/04/15 00:35:37;;;;;;;6.20;5.60;;;;;;;;;;4970220;28;20437;-84
2023/04/15 00:38:07;;;;;;;6.83;6.20;;;;;;;;;;4972032;28;20976;-83
2023/04/15 00:40:33;;;;;;;6.63;6.13;;;;;;;;;;4979691;28;20556;-83
2023/04/15 00:42:59;;;;;;;6.73;6.10;;;;;;;;;;4990084;28;20518;-82
2023/04/15 00:45:26;;;;;;;6.87;6.27;;;;;;;;;;4992668;28;20447;-83
2023/04/15 00:47:53;;;;;;;15.63;6.20;;;;;;;;;;4982714;28;20476;-82
2023/04/15 00:50:19;;;;;;;7.90;7.30;;;;;;;;;;4976578;28;20935;-83
2023/04/15 00:52:45;;;;;;;6.93;6.33;;;;;;;;;;4971251;28;20429;-84
2023/04/15 00:55:11;;;;;;;7.03;6.43;;;;;;;;;;4975938;28;20448;-84
2023/04/15 00:57:37;;;;;;;9.60;8.80;;;;;;;;;;4974517;28;20606;-83
2023/04/15 01:00:04;;;;;;;8.50;7.20;;;;;;;;;;4975113;28;20830;-84
2023/04/15 01:02:31;;;;;;;6.97;6.30;;;;;;;;;;4970635;28;20449;-85
2023/04/15 01:04:57;;;;;;;8.33;7.63;;;;;;;;;;4972502;28;20491;-83
2023/04/15 01:07:23;;;;;;;7.43;6.73;;;;;;;;;;4971160;28;20468;-83
2023/04/15 01:09:49;;;;;;;11.87;6.83;;;;;;;;;;4968983;28;20445;-84
2023/04/15 01:12:16;;;;;;;6.77;6.33;;;;;;;;;;4950392;28;20984;-82
2023/04/15 01:14:42;;;;;;;9.40;6.07;;;;;;;;;;4971663;28;20441;-84
2023/04/15 01:17:08;;;;;;;8.17;7.30;;;;;;;;;;4970374;28;20433;-84
2023/04/15 01:19:36;;;;;;;7.27;6.50;;;;;;;;;;4968431;28;20499;-84
2023/04/15 01:22:02;;;;;;;7.67;7.13;;;;;;;;;;4968964;28;20532;-83
2023/04/15 01:24:30;;;;;;;7.80;6.97;;;;;;;;;;4968301;28;20460;-84
2023/04/15 01:26:56;;;;;;;7.77;7.07;;;;;;;;;;4970428;28;20471;-83
2023/04/15 01:29:22;;;;;;;10.33;7.10;;;;;;;;;;4968760;28;20642;-84
2023/04/15 01:31:50;;;;;;;9.47;7.23;;;;;;;;;;4972264;28;20433;-83
2023/04/15 01:34:16;;;;;;;11.20;7.33;;;;;;;;;;4987930;28;20421;-83
2023/04/15 01:36:42;;;;;;;7.73;7.10;;;;;;;;;;4975239;28;20436;-84
2023/04/15 01:39:09;;;;;;;10.83;7.20;;;;;;;;;;4968832;28;20464;-84
2023/04/15 01:41:35;;;;;;;8.43;7.90;;;;;;;;;;4970062;28;20473;-82
2023/04/15 01:44:01;;;;;;;7.17;6.70;;;;;;;;;;4970044;28;20477;-82
2023/04/15 01:46:27;;;;;;;7.87;7.00;;;;;;;;;;4971015;28;20543;-82
2023/04/15 01:48:53;;;;;;;8.57;7.87;;;;;;;;;;4970253;28;20414;-81
2023/04/15 01:51:19;;;;;;;10.67;9.10;;;;;;;;;;4966106;28;20448;-84
2023/04/15 01:53:45;;;;;;;8.30;7.80;;;;;;;;;;4966515;28;20544;-83
2023/04/15 01:56:11;;;;;;;8.40;7.77;;;;;;;;;;4966881;28;20445;-83
2023/04/15 01:58:39;;;;;;;9.77;8.87;;;;;;;;;;4966993;28;20495;-82
2023/04/15 02:01:05;;;;;;;11.43;8.87;;;;;;;;;;4966796;28;21142;-83
2023/04/15 02:03:32;;;;;;;10.57;7.83;;;;;;;;;;4965008;28;20468;-83
2023/04/15 02:05:58;;;;;;;14.33;8.30;;;;;;;;;;4966781;28;20449;-83
2023/04/15 02:08:24;;;;;;;9.70;7.77;;;;;;;;;;4949869;28;20463;-83
2023/04/15 02:10:50;;;;;;;7.90;7.40;;;;;;;;;;4969598;28;20433;-84
2023/04/15 02:13:16;;;;;;;11.47;7.77;;;;;;;;;;4966795;28;20448;-83
2023/04/15 02:15:47;;;;;;;9.13;8.37;;;;;;;;;;4971447;28;20520;-83
2023/04/15 02:18:13;;;;;;;8.57;7.70;;;;;;;;;;4954932;28;20484;-83
2023/04/15 02:20:39;;;;;;;8.23;7.57;;;;;;;;;;4974976;28;20528;-83
2023/04/15 02:23:06;;;;;;;9.03;7.53;;;;;;;;;;4973551;28;20470;-84
2023/04/15 02:25:32;;;;;;;11.30;8.07;;;;;;;;;;4983060;28;20421;-83
2023/04/15 02:27:58;;;;;;;8.97;8.23;;;;;;;;;;4979047;28;20445;-83
2023/04/15 02:30:24;;;;;;;8.63;8.03;;;;;;;;;;4986055;28;20455;-84
2023/04/15 02:32:50;;;;;;;9.03;7.70;;;;;;;;;;4981709;28;20441;-85
2023/04/15 02:35:18;;;;;;;10.67;7.97;;;;;;;;;;4985699;28;20433;-83
2023/04/15 02:37:45;;;;;;;8.63;8.07;;;;;;;;;;4976142;28;20469;-84
2023/04/15 02:40:11;;;;;;;9.97;9.17;;;;;;;;;;4975805;28;20456;-83
2023/04/15 02:42:38;;;;;;;9.20;8.20;;;;;;;;;;4974466;28;20445;-85
2023/04/15 02:45:06;;;;;;;14.10;9.70;;;;;;;;;;4992542;28;20425;-83
2023/04/15 02:47:32;;;;;;;9.47;8.70;;;;;;;;;;4991525;28;20590;-84
2023/04/15 02:49:59;;;;;;;10.17;9.33;;;;;;;;;;4990820;28;20462;-83
2023/04/15 02:52:25;;;;;;;9.20;8.50;;;;;;;;;;4982198;28;20449;-84
2023/04/15 02:54:52;;;;;;;10.20;8.00;;;;;;;;;;4983460;28;21014;-84
2023/04/15 02:57:18;;;;;;;9.47;8.63;;;;;;;;;;4983545;28;20437;-83
2023/04/15 02:59:44;;;;;;;12.67;9.60;;;;;;;;;;4985784;28;20480;-84
2023/04/15 03:02:10;;;;;;;10.43;9.53;;;;;;;;;;4985816;28;20445;-85
2023/04/15 03:04:36;;;;;;;9.87;9.17;;;;;;;;;;4981283;28;20448;-84
2023/04/15 03:07:02;;;;;;;9.60;8.70;;;;;;;;;;4979804;28;20481;-85
2023/04/15 03:09:29;;;;;;;11.60;9.17;;;;;;;;;;4979295;28;20776;-84
2023/04/15 03:11:55;;;;;;;10.13;9.07;;;;;;;;;;4978729;28;20499;-84
2023/04/15 03:14:21;;;;;;;10.30;9.27;;;;;;;;;;4979435;28;20480;-85
2023/04/15 03:16:49;;;;;;;11.17;10.00;;;;;;;;;;4984150;28;20819;-85
2023/04/15 03:19:15;;;;;;;8.60;7.67;;;;;;;;;;4977064;28;20465;-85
2023/04/15 03:21:41;;;;;;;9.90;9.00;;;;;;;;;;4983534;28;20507;-85
2023/04/15 03:24:07;;;;;;;10.30;9.27;;;;;;;;;;4974988;28;20465;-84
2023/04/15 03:26:33;;;;;;;10.03;9.33;;;;;;;;;;4976647;28;20456;-83
2023/04/15 03:28:59;;;;;;;13.27;9.93;;;;;;;;;;4984566;28;20441;-84
2023/04/15 03:31:25;;;;;;;18.50;9.20;;;;;;;;;;4985261;28;20449;-84
2023/04/15 03:33:51;;;;;;;12.50;11.20;;;;;;;;;;4981389;28;20454;-83
2023/04/15 03:36:17;;;;;;;12.53;10.70;;;;;;;;;;4981212;28;20444;-83
2023/04/15 03:38:43;;;;;;;15.93;10.30;;;;;;;;;;4983281;28;20499;-84
2023/04/15 03:41:09;;;;;;;13.03;10.80;;;;;;;;;;4984520;28;20456;-84
2023/04/15 03:43:35;;;;;;;11.60;10.40;;;;;;;;;;4991557;28;20442;-83
2023/04/15 03:46:01;;;;;;;11.90;10.67;;;;;;;;;;4980936;28;20453;-84
2023/04/15 03:48:28;;;;;;;11.87;10.70;;;;;;;;;;4983592;28;20453;-85
2023/04/15 03:50:54;;;;;;;12.20;11.10;;;;;;;;;;4984916;28;20432;-84
2023/04/15 03:53:21;;;;;;;11.03;10.10;;;;;;;;;;4983459;28;20453;-84
2023/04/15 03:55:47;;;;;;;12.90;11.60;;;;;;;;;;4982892;28;20433;-85
2023/04/15 03:58:13;;;;;;;12.03;10.97;;;;;;;;;;4978880;28;20983;-84
2023/04/15 04:00:40;;;;;;;14.10;11.37;;;;;;;;;;4985596;28;20440;-84
2023/04/15 04:03:06;;;;;;;12.00;10.80;;;;;;;;;;4983171;28;20428;-84
2023/04/15 04:05:35;;;;;;;12.20;10.63;;;;;;;;;;4968024;28;21808;-84
2023/04/15 04:08:01;;;;;;;18.30;12.20;;;;;;;;;;4982543;28;20449;-84
2023/04/15 04:10:27;;;;;;;12.00;10.90;;;;;;;;;;4983209;28;20441;-84
2023/04/15 04:12:53;;;;;;;12.20;10.53;;;;;;;;;;4986592;28;20436;-83
2023/04/15 04:15:19;;;;;;;14.87;11.20;;;;;;;;;;4985681;28;20517;-84
2023/04/15 04:17:45;;;;;;;12.13;10.97;;;;;;;;;;4982929;28;20469;-84
2023/04/15 04:20:11;;;;;;;12.80;11.23;;;;;;;;;;4985393;28;20456;-84
2023/04/15 04:22:40;;;;;;;15.63;11.53;;;;;;;;;;4978591;28;20468;-84
2023/04/15 04:25:07;;;;;;;15.17;11.80;;;;;;;;;;4984691;28;20433;-83
2023/04/15 04:27:34;;;;;;;14.43;13.17;;;;;;;;;;4982997;28;20448;-83
2023/04/15 04:30:00;;;;;;;16.80;11.73;;;;;;;;;;4984180;28;20465;-83
2023/04/15 04:32:26;;;;;;;13.67;11.23;;;;;;;;;;4981590;28;20446;-84
2023/04/15 04:34:52;;;;;;;11.77;10.57;;;;;;;;;;4985380;28;20433;-84
2023/04/15 04:37:18;;;;;;;13.60;10.97;;;;;;;;;;4980067;28;20469;-84
2023/04/15 04:39:44;;;;;;;13.30;12.17;;;;;;;;;;4982609;28;20962;-84
2023/04/15 04:42:10;;;;;;;13.70;11.40;;;;;;;;;;4981368;28;20448;-84
2023/04/15 04:44:36;;;;;;;12.60;11.40;;;;;;;;;;4982747;28;20539;-84
2023/04/15 04:47:03;;;;;;;13.53;11.00;;;;;;;;;;4978911;28;20445;-83
2023/04/15 04:49:29;;;;;;;13.80;10.87;;;;;;;;;;4979714;28;20445;-84
2023/04/15 04:51:55;;;;;;;14.33;11.80;;;;;;;;;;4994277;28;20469;-83
2023/04/15 04:54:21;;;;;;;12.83;11.10;;;;;;;;;;4977122;28;20461;-84
2023/04/15 04:56:47;;;;;;;20.37;12.33;;;;;;;;;;4991817;28;20437;-83
2023/04/15 04:59:13;;;;;;;13.67;12.30;;;;;;;;;;4991018;28;20535;-84
2023/04/15 05:01:39;;;;;;;15.93;12.63;;;;;;;;;;4987594;28;20528;-84
2023/04/15 05:04:06;;;;;;;17.80;13.10;;;;;;;;;;4984598;28;20582;-84
2023/04/15 05:06:32;;;;;;;13.70;12.30;;;;;;;;;;4990160;28;20461;-83
2023/04/15 05:08:58;;;;;;;14.10;11.83;;;;;;;;;;4988281;28;20444;-83
2023/04/15 05:11:25;;;;;;;16.00;10.97;;;;;;;;;;4986419;28;20456;-84
2023/04/15 05:13:51;;;;;;;13.10;11.77;;;;;;;;;;4985261;28;20552;-84
2023/04/15 05:16:18;;;;;;;15.27;13.30;;;;;;;;;;4985743;28;20437;-84
2023/04/15 05:18:44;;;;;;;16.77;14.97;;;;;;;;;;4988015;28;20456;-83
2023/04/15 05:21:11;;;;;;;15.93;13.30;;;;;;;;;;4978961;28;20441;-84
2023/04/15 05:23:37;;;;;;;14.30;12.00;;;;;;;;;;4990142;28;20472;-83
2023/04/15 05:26:03;;;;;;;18.13;14.30;;;;;;;;;;4994814;28;20448;-82
2023/04/15 05:28:29;;;;;;;14.20;11.80;;;;;;;;;;4998613;28;20433;-83
2023/04/15 05:30:55;;;;;;;14.73;12.67;;;;;;;;;;4986631;28;20444;-83
2023/04/15 05:33:22;;;;;;;14.80;12.77;;;;;;;;;;4984443;28;20417;-84
2023/04/15 05:35:48;;;;;;;16.87;13.30;;;;;;;;;;4981246;28;21138;-83
2023/04/15 05:38:14;;;;;;;19.33;12.97;;;;;;;;;;4981396;28;20481;-84
2023/04/15 05:40:40;;;;;;;16.03;12.93;;;;;;;;;;4990482;28;20444;-83
2023/04/15 05:43:06;;;;;;;16.83;13.23;;;;;;;;;;4985668;28;20433;-83
2023/04/15 05:45:32;;;;;;;16.97;13.67;;;;;;;;;;4990937;28;20646;-83
2023/04/15 05:47:58;;;;;;;20.07;14.00;;;;;;;;;;4985667;28;20425;-83
2023/04/15 05:50:24;;;;;;;17.50;12.67;;;;;;;;;;4976778;28;20430;-84
2023/04/15 05:52:50;;;;;;;15.30;13.70;;;;;;;;;;4973494;28;20441;-84
2023/04/15 05:55:16;;;;;;;18.33;14.87;;;;;;;;;;4991372;28;20594;-84
2023/04/15 05:57:42;;;;;;;17.53;13.17;;;;;;;;;;4981435;28;20447;-84
2023/04/15 06:00:09;;;;;;;14.87;13.27;;;;;;;;;;4992054;28;20440;-84
2023/04/15 06:02:35;;;;;;;14.90;13.27;;;;;;;;;;4990456;28;20421;-83
2023/04/15 06:05:02;;;;;;;13.13;11.93;;;;;;;;;;4975917;28;20429;-85
2023/04/15 06:07:28;;;;;;;15.10;13.30;;;;;;;;;;4980994;28;20440;-85
2023/04/15 06:09:54;;;;;;;16.50;12.97;;;;;;;;;;4989583;28;20436;-81
2023/04/15 06:12:20;;;;;;;14.00;12.50;;;;;;;;;;4989424;28;21047;-85
2023/04/15 06:14:46;;;;;;;16.57;13.27;;;;;;;;;;4975609;28;20426;-86
2023/04/15 06:17:13;;;;;;;13.37;12.03;;;;;;;;;;4998548;28;20437;-86
2023/04/15 06:19:39;;;;;;;14.90;13.30;;;;;;;;;;4992349;28;20482;-86
2023/04/15 06:22:06;;;;;;;16.93;11.60;;;;;;;;;;4972389;28;20904;-86
2023/04/15 06:24:32;;;;;;;13.20;12.10;;;;;;;;;;4993746;28;20469;-85
2023/04/15 06:27:06;;;;;;;13.40;11.87;;;;;;;;;;4992716;28;20484;-85
2023/04/15 06:29:32;;;;;;;11.43;10.50;;;;;;;;;;4995411;28;20431;-85
2023/04/15 06:34:34;;;;;;;13.50;12.30;;;;;;;;;;4940699;26;20867;-85
2023/04/15 06:37:08;;;;;;;13.37;11.10;;;;;;;;;;4955316;29;20466;-85
2023/04/15 06:39:56;;;;;;;12.03;10.97;;;;;;;;;;4950637;29;20434;-84
2023/04/15 06:42:22;;;;;;;12.97;11.97;;;;;;;;;;4938363;28;20415;-85
2023/04/15 06:44:51;;;;;;;12.90;11.70;;;;;;;;;;4953670;29;20419;-85
2023/04/15 06:47:18;;;;;;;12.50;11.50;;;;;;;;;;4951564;29;20446;-85
2023/04/15 06:49:44;;;;;;;12.00;10.90;;;;;;;;;;4947386;29;20518;-87
2023/04/15 06:52:11;;;;;;;11.80;10.90;;;;;;;;;;4953265;29;20435;-87
2023/04/15 06:54:37;;;;;;;12.77;11.60;;;;;;;;;;4949312;29;20440;-85
2023/04/15 06:57:10;;;;;;;12.93;11.57;;;;;;;;;;4954984;29;20442;-87
2023/04/15 06:59:36;;;;;;;11.87;10.80;;;;;;;;;;4957626;28;20445;-86
2023/04/15 07:02:02;;;;;;;13.00;12.00;;;;;;;;;;4958116;28;20471;-84
2023/04/15 07:04:28;;;;;;;12.60;11.40;;;;;;;;;;4954810;28;20502;-85
2023/04/15 07:06:55;;;;;;;13.30;11.30;;;;;;;;;;4944997;29;20430;-82
2023/04/15 07:09:22;;;;;;;13.87;12.47;;;;;;;;;;4942961;29;20527;-86
2023/04/15 07:11:48;;;;;;;12.50;11.40;;;;;;;;;;4933899;29;20454;-86
2023/04/15 07:14:15;;;;;;;13.57;12.33;;;;;;;;;;4948673;29;20478;-85
2023/04/15 07:16:41;;;;;;;14.60;13.07;;;;;;;;;;4946109;29;20808;-84
2023/04/15 07:19:07;;;;;;;14.50;13.40;;;;;;;;;;4938321;29;20450;-85
2023/04/15 07:21:33;;;;;;;14.20;12.57;;;;;;;;;;4941809;29;20445;-84
2023/04/15 07:23:59;;;;;;;14.27;12.87;;;;;;;;;;4950999;29;20443;-86
2023/04/15 07:26:25;;;;;;;14.40;13.00;;;;;;;;;;4947083;29;20506;-84
2023/04/15 07:28:51;;;;;;;13.40;11.93;;;;;;;;;;4943942;29;20478;-83
2023/04/15 07:31:17;;;;;;;14.00;12.63;;;;;;;;;;4942450;29;20455;-84
2023/04/15 07:33:43;;;;;;;13.13;12.03;;;;;;;;;;4942062;29;20676;-83
2023/04/15 07:36:29;;;;;;;13.40;12.30;;;;;;;;;;4946502;29;20510;-84
2023/04/15 07:38:55;;;;;;;15.47;12.97;;;;;;;;;;4938660;29;20463;-82
2023/04/15 07:41:21;;;;;;;12.60;11.50;;;;;;;;;;4928405;29;20963;-81
2023/04/15 07:43:47;;;;;;;14.13;12.73;;;;;;;;;;4924520;29;20863;-81
2023/04/15 07:46:14;;;;;;;13.63;12.53;;;;;;;;;;4933715;29;20438;-86
2023/04/15 07:48:40;;;;;;;13.70;12.00;;;;;;;;;;4943969;29;20812;-82
2023/04/15 07:51:07;;;;;;;14.80;13.03;;;;;;;;;;4930316;29;20512;-81
2023/04/15 07:53:33;;;;;;;13.70;12.40;;;;;;;;;;4927141;29;20456;-84
2023/04/15 07:55:59;;;;;;;14.30;12.90;;;;;;;;;;4927815;29;20466;-81
2023/04/15 07:58:26;;;;;;;11.93;10.77;;;;;;;;;;4924161;29;20555;-84
2023/04/15 08:00:53;;;;;;;11.27;10.23;;;;;;;;;;4934432;29;20443;-85
2023/04/15 08:03:21;;;;;;;11.67;10.60;;;;;;;;;;4934220;29;20459;-84
2023/04/15 08:05:47;;;;;;;11.37;10.37;;;;;;;;;;4931942;29;20448;-84
2023/04/15 08:08:13;;;;;;;13.53;11.10;;;;;;;;;;4934529;29;20523;-84
2023/04/15 08:10:39;;;;;;;11.17;10.17;;;;;;;;;;4937002;29;21027;-84
2023/04/15 08:13:06;;;;;;;9.90;9.10;;;;;;;;;;4936503;28;20469;-85
2023/04/15 08:15:32;;;;;;;10.23;9.20;;;;;;;;;;4941639;29;20462;-83
2023/04/15 08:18:00;;;;;;;9.90;9.00;;;;;;;;;;4939550;29;20435;-82
2023/04/15 08:20:26;;;;;;;10.00;9.20;;;;;;;;;;4936519;29;20480;-83
2023/04/15 08:22:52;;;;;;;8.93;8.13;;;;;;;;;;4937553;29;20470;-84
2023/04/15 08:25:19;;;;;;;8.47;7.77;;;;;;;;;;4925796;29;20546;-84
2023/04/15 08:27:45;;;;;;;14.20;8.93;;;;;;;;;;4931914;29;20447;-83
2023/04/15 08:30:12;;;;;;;8.43;7.83;;;;;;;;;;4927051;29;20819;-85
2023/04/15 08:32:38;;;;;;;7.87;7.27;;;;;;;;;;4936634;29;20566;-84
2023/04/15 08:35:05;;;;;;;8.93;8.07;;;;;;;;;;4938608;29;20561;-84
2023/04/15 08:37:31;;;;;;;8.67;7.97;;;;;;;;;;4929941;29;20562;-86
2023/04/15 08:39:57;;;;;;;7.70;7.10;;;;;;;;;;4943999;29;20481;-84
2023/04/15 08:42:27;;;;;;;7.77;7.27;;;;;;;;;;4936028;29;20640;-85
2023/04/15 08:44:55;;;;;;;7.37;6.93;;;;;;;;;;4939661;29;20446;-84
2023/04/15 08:47:21;;;;;;;7.70;7.03;;;;;;;;;;4941787;29;20853;-85
2023/04/15 08:49:52;;;;;;;6.93;6.53;;;;;;;;;;4942771;29;20470;-85
2023/04/15 08:52:19;;;;;;;8.20;7.67;;;;;;;;;;4922350;29;20452;-86
2023/04/15 08:54:45;;;;;;;6.00;5.63;;;;;;;;;;4943307;29;20471;-84
2023/04/15 08:57:12;;;;;;;7.33;6.73;;;;;;;;;;4937255;29;20513;-86
2023/04/15 08:59:39;;;;;;;6.07;5.80;;;;;;;;;;4943684;29;20454;-85
2023/04/15 09:02:05;;;;;;;4.37;4.17;;;;;;;;;;4943208;29;20462;-82
2023/04/15 09:04:31;;;;;;;4.33;4.13;;;;;;;;;;4941766;29;20443;-83
2023/04/15 09:06:57;;;;;;;3.90;3.70;;;;;;;;;;4951589;28;20676;-85
2023/04/15 09:09:23;;;;;;;3.83;3.73;;;;;;;;;;4953630;28;20513;-86
2023/04/15 09:11:50;;;;;;;3.60;3.50;;;;;;;;;;4950914;29;20825;-85
2023/04/15 09:14:17;;;;;;;3.40;3.30;;;;;;;;;;4953982;29;20618;-85
2023/04/15 09:17:04;;;;;;;4.50;4.20;;;;;;;;;;4948842;29;20519;-85
2023/04/15 09:19:32;;;;;;;4.40;4.30;;;;;;;;;;4942764;29;20447;-85
2023/04/15 09:21:58;;;;;;;4.97;4.77;;;;;;;;;;4945769;29;20641;-83
2023/04/15 09:24:25;;;;;;;3.90;3.80;;;;;;;;;;4936579;29;20769;-82
2023/04/15 09:26:56;;;;;;;4.13;4.00;;;;;;;;;;4942175;29;20459;-83
2023/04/15 09:29:25;;;;;;;4.83;4.63;;;;;;;;;;4938486;29;20482;-77
2023/04/15 09:31:52;;;;;;;5.00;4.80;;;;;;;;;;4944368;29;20458;-84
2023/04/15 09:34:18;;;;;;;4.80;4.50;;;;;;;;;;4935866;29;20501;-81
2023/04/15 09:36:50;;;;;;;4.73;4.60;;;;;;;;;;4932555;29;20447;-84
2023/04/15 09:39:16;;;;;;;6.00;5.60;;;;;;;;;;4936284;28;20530;-86
2023/04/15 09:41:43;;;;;;;5.50;5.30;;;;;;;;;;4936918;29;21235;-85
2023/04/15 09:44:25;;;;;;;5.97;5.63;;;;;;;;;;4937144;29;20435;-84
2023/04/15 09:46:51;;;;;;;5.43;5.23;;;;;;;;;;4942620;29;20462;-83
2023/04/15 09:49:17;;;;;;;6.20;5.80;;;;;;;;;;4935985;29;20497;-86
2023/04/15 09:51:43;;;;;;;5.00;4.80;;;;;;;;;;4936627;29;20439;-85
2023/04/15 09:54:09;;;;;;;5.10;4.90;;;;;;;;;;4940448;29;20435;-86
2023/04/15 09:56:37;;;;;;;5.60;5.30;;;;;;;;;;4934863;29;20443;-83
2023/04/15 09:59:04;;;;;;;6.30;5.83;;;;;;;;;;4935856;29;20458;-85
2023/04/15 10:01:31;;;;;;;5.03;4.83;;;;;;;;;;4937901;29;20439;-86
2023/04/15 10:03:57;;;;;;;5.40;5.10;;;;;;;;;;4937778;29;20425;-84
2023/04/15 10:06:26;;;;;;;4.97;4.77;;;;;;;;;;4946519;29;20432;-85
2023/04/15 10:08:53;;;;;;;5.77;5.27;;;;;;;;;;4916203;29;20707;-84
2023/04/15 10:11:22;;;;;;;4.40;4.30;;;;;;;;;;4932956;28;20540;-84
2023/04/15 10:13:49;;;;;;;4.60;4.50;;;;;;;;;;4939139;29;20947;-83
2023/04/15 10:16:16;;;;;;;4.97;4.77;;;;;;;;;;4914977;29;20502;-83
2023/04/15 10:18:46;;;;;;;5.27;4.97;;;;;;;;;;4933801;29;20482;-82
2023/04/15 10:21:17;;;;;;;4.23;4.13;;;;;;;;;;4932830;29;20477;-86
2023/04/15 10:23:43;;;;;;;4.60;4.40;;;;;;;;;;4942568;28;20443;-83
2023/04/15 10:26:11;;;;;;;4.73;4.57;;;;;;;;;;4946162;29;20448;-83
2023/04/15 10:28:37;;;;;;;4.23;4.10;;;;;;;;;;4933123;29;20494;-82
2023/04/15 10:31:04;;;;;;;5.77;5.40;;;;;;;;;;4920697;29;20455;-83
2023/04/15 10:33:31;;;;;;;5.63;5.43;;;;;;;;;;4928758;29;20466;-83
2023/04/15 10:35:57;;;;;;;6.10;5.80;;;;;;;;;;4932117;29;20821;-82
2023/04/15 10:38:37;;;;;;;6.33;5.93;;;;;;;;;;4928083;29;20808;-82
2023/04/15 10:41:16;;;;;;;6.60;6.20;;;;;;;;;;4916261;29;20781;-83
2023/04/15 10:43:46;;;;;;;7.53;7.03;;;;;;;;;;4934445;29;20439;-85
2023/04/15 10:46:12;;;;;;;8.43;7.97;;;;;;;;;;4920017;29;20445;-82
2023/04/15 10:48:38;;;;;;;7.33;6.93;;;;;;;;;;4921330;29;20483;-81
2023/04/15 10:51:04;;;;;;;9.80;9.00;;;;;;;;;;4921897;29;20463;-80
2023/04/15 10:53:30;;;;;;;8.70;8.00;;;;;;;;;;4926685;29;20510;-80
2023/04/15 10:55:59;;;;;;;8.30;7.63;;;;;;;;;;4933241;29;20473;-82
2023/04/15 10:58:26;;;;;;;7.13;6.77;;;;;;;;;;4922885;29;20936;-81
2023/04/15 11:00:52;;;;;;;7.07;6.53;;;;;;;;;;4938539;29;20435;-80
2023/04/15 11:03:38;;;;;;;5.37;5.17;;;;;;;;;;4937957;29;20476;-84
2023/04/15 11:06:05;;;;;;;7.03;6.67;;;;;;;;;;4946112;29;20407;-80
2023/04/15 11:08:50;;;;;;;5.77;5.57;;;;;;;;;;4940183;29;20493;-85
2023/04/15 11:11:16;;;;;;;6.90;6.67;;;;;;;;;;4946659;29;20674;-86
2023/04/15 11:13:49;;;;;;;9.47;8.67;;;;;;;;;;4945969;28;20439;-85
2023/04/15 11:16:15;;;;;;;7.40;6.80;;;;;;;;;;4967233;28;20438;-85
2023/04/15 11:18:41;;;;;;;6.93;6.53;;;;;;;;;;4955817;28;20654;-82
2023/04/15 11:21:08;;;;;;;7.67;7.27;;;;;;;;;;4951875;29;20590;-85
2023/04/15 11:23:45;;;;;;;7.57;7.07;;;;;;;;;;4938629;29;20563;-84
2023/04/15 11:26:11;;;;;;;8.20;7.63;;;;;;;;;;4940336;29;20449;-84
2023/04/15 11:28:39;;;;;;;7.13;6.70;;;;;;;;;;4940521;29;20550;-86
2023/04/15 11:31:10;;;;;;;10.90;9.03;;;;;;;;;;4942624;29;20468;-86
2023/04/15 11:33:36;;;;;;;6.33;6.07;;;;;;;;;;4928481;29;20464;-86
2023/04/15 11:36:03;;;;;;;8.23;7.73;;;;;;;;;;4949410;29;20434;-85
2023/04/15 11:38:30;;;;;;;7.43;6.93;;;;;;;;;;4937437;29;20507;-83
2023/04/15 11:40:56;;;;;;;7.20;6.80;;;;;;;;;;4958837;29;20410;-82
2023/04/15 11:43:23;;;;;;;7.77;7.37;;;;;;;;;;4944981;29;20719;-82
2023/04/15 11:45:50;;;;;;;7.10;6.63;;;;;;;;;;4943555;29;20438;-86
2023/04/15 11:48:16;;;;;;;6.77;6.37;;;;;;;;;;4946916;29;20474;-84
2023/04/15 11:50:42;;;;;;;6.83;6.40;;;;;;;;;;4935567;29;20923;-85
2023/04/15 11:53:09;;;;;;;6.63;6.30;;;;;;;;;;4936425;29;20475;-86
2023/04/15 11:55:46;;;;;;;5.13;4.97;;;;;;;;;;4944542;29;20426;-84
2023/04/15 11:58:12;;;;;;;6.10;5.80;;;;;;;;;;4946359;29;20484;-86
2023/04/15 12:00:38;;;;;;;5.57;5.07;;;;;;;;;;4947213;29;20422;-84
2023/04/15 12:03:23;;;;;;;4.97;4.80;;;;;;;;;;4945436;29;20431;-84
2023/04/15 12:06:10;;;;;;;7.03;5.83;;;;;;;;;;4943594;29;20446;-84
2023/04/15 12:08:51;;;;;;;5.13;4.40;;;;;;;;;;4926891;29;20984;-83
2023/04/15 12:11:21;;;;;;;5.40;5.00;;;;;;;;;;4927439;29;20736;-83
2023/04/15 12:13:48;;;;;;;5.80;5.30;;;;;;;;;;4940931;29;20549;-82
2023/04/15 12:16:24;;;;;;;5.50;5.20;;;;;;;;;;4939071;29;20479;-83
2023/04/15 12:18:50;;;;;;;5.67;5.30;;;;;;;;;;4943936;29;20996;-82
2023/04/15 12:21:18;;;;;;;5.23;4.93;;;;;;;;;;4938321;29;20519;-84
2023/04/15 12:23:51;;;;;;;6.23;5.73;;;;;;;;;;4932795;29;20460;-83
2023/04/15 12:26:18;;;;;;;7.03;6.53;;;;;;;;;;4939067;29;20924;-82
2023/04/15 12:28:44;;;;;;;5.93;5.63;;;;;;;;;;4936918;29;20470;-83
2023/04/15 12:31:11;;;;;;;6.57;5.33;;;;;;;;;;4937900;29;20498;-83
2023/04/15 12:33:38;;;;;;;6.40;5.90;;;;;;;;;;4936827;29;20512;-81
2023/04/15 12:36:04;;;;;;;5.57;5.27;;;;;;;;;;4942007;29;20475;-82
2023/04/15 12:38:30;;;;;;;4.77;4.57;;;;;;;;;;4936018;29;20448;-82
2023/04/15 12:40:58;;;;;;;7.50;5.40;;;;;;;;;;4942409;29;20447;-79
2023/04/15 12:43:25;;;;;;;4.27;4.17;;;;;;;;;;4934064;29;20794;-83
2023/04/15 12:45:51;;;;;;;6.20;5.30;;;;;;;;;;4949628;29;20399;-83
2023/04/15 12:48:17;;;;;;;6.07;5.60;;;;;;;;;;4930689;29;20472;-83
2023/04/15 12:50:43;;;;;;;6.17;5.77;;;;;;;;;;4938288;29;20415;-85
2023/04/15 12:53:09;;;;;;;6.37;5.97;;;;;;;;;;4922628;29;20479;-84
2023/04/15 12:55:35;;;;;;;5.70;5.27;;;;;;;;;;4939448;29;20419;-82
2023/04/15 12:58:01;;;;;;;5.43;5.23;;;;;;;;;;4930574;29;21991;-83
2023/04/15 13:00:27;;;;;;;7.50;5.87;;;;;;;;;;4938133;29;20430;-82
2023/04/15 13:02:53;;;;;;;7.07;6.67;;;;;;;;;;4911800;29;20434;-82
2023/04/15 13:05:20;;;;;;;6.37;5.87;;;;;;;;;;4941124;29;20979;-82
2023/04/15 13:07:46;;;;;;;4.97;4.77;;;;;;;;;;4932647;29;20469;-83
2023/04/15 13:10:12;;;;;;;5.50;5.10;;;;;;;;;;4942120;29;20863;-82
2023/04/15 13:12:48;;;;;;;4.30;4.10;;;;;;;;;;4942773;29;20790;-84
2023/04/15 13:15:18;;;;;;;4.90;4.60;;;;;;;;;;4930626;29;20791;-82
2023/04/15 13:17:44;;;;;;;5.50;4.93;;;;;;;;;;4934672;29;20443;-85
2023/04/15 13:20:10;;;;;;;5.00;4.80;;;;;;;;;;4954747;28;20507;-85
2023/04/15 13:22:36;;;;;;;5.03;4.73;;;;;;;;;;4944296;28;20518;-84
2023/04/15 13:25:02;;;;;;;4.60;4.50;;;;;;;;;;4940610;29;20450;-83
2023/04/15 13:27:32;;;;;;;5.17;4.90;;;;;;;;;;4936689;29;20463;-82
2023/04/15 13:29:58;;;;;;;4.90;4.60;;;;;;;;;;4933480;29;20503;-84
2023/04/15 13:32:25;;;;;;;6.50;6.03;;;;;;;;;;4916158;29;20451;-85
2023/04/15 13:34:51;;;;;;;4.33;4.03;;;;;;;;;;4943197;29;20521;-84
2023/04/15 13:37:17;;;;;;;4.63;4.43;;;;;;;;;;4947167;28;20470;-84
2023/04/15 13:39:43;;;;;;;4.40;4.20;;;;;;;;;;4951571;28;20537;-83
2023/04/15 13:42:09;;;;;;;4.70;4.50;;;;;;;;;;4948094;28;20442;-84
2023/04/15 13:44:35;;;;;;;4.20;4.00;;;;;;;;;;4953143;29;20959;-84
2023/04/15 13:47:01;;;;;;;7.17;5.83;;;;;;;;;;4939944;28;20434;-84
2023/04/15 13:49:27;;;;;;;4.10;4.00;;;;;;;;;;4950014;28;20908;-85
2023/04/15 13:51:53;;;;;;;4.97;4.50;;;;;;;;;;4956337;28;20969;-84
2023/04/15 13:54:20;;;;;;;4.53;4.37;;;;;;;;;;4940723;28;20943;-84
2023/04/15 13:56:46;;;;;;;4.00;3.90;;;;;;;;;;4940694;28;20451;-85
2023/04/15 13:59:12;;;;;;;3.87;3.67;;;;;;;;;;4946888;28;20612;-83
2023/04/15 14:01:40;;;;;;;4.43;4.27;;;;;;;;;;4947536;28;20426;-85
2023/04/15 14:04:06;;;;;;;6.97;6.37;;;;;;;;;;4948123;28;20419;-85
2023/04/15 14:06:32;;;;;;;4.63;4.20;;;;;;;;;;4939508;28;20669;-85
2023/04/15 14:08:58;;;;;;;5.57;5.30;;;;;;;;;;4956860;29;20489;-85
2023/04/15 14:11:24;;;;;;;7.07;6.67;;;;;;;;;;4959211;28;20430;-84
2023/04/15 14:13:50;;;;;;;5.73;5.43;;;;;;;;;;4951764;28;20501;-85
2023/04/15 14:16:16;;;;;;;5.07;4.87;;;;;;;;;;4951406;28;20505;-82
2023/04/15 14:18:42;;;;;;;5.63;5.23;;;;;;;;;;4957021;28;20481;-82
2023/04/15 14:21:09;;;;;;;4.60;4.40;;;;;;;;;;4934747;28;20454;-80
2023/04/15 14:23:35;;;;;;;5.47;5.07;;;;;;;;;;4938596;28;20427;-83
2023/04/15 14:26:01;;;;;;;5.53;5.23;;;;;;;;;;4957804;28;20432;-84
2023/04/15 14:28:27;;;;;;;4.60;4.40;;;;;;;;;;4963608;28;20473;-81
2023/04/15 14:30:53;;;;;;;5.70;4.60;;;;;;;;;;4955931;28;21472;-83
2023/04/15 14:33:19;;;;;;;5.00;4.70;;;;;;;;;;4938390;29;20474;-83
2023/04/15 14:35:45;;;;;;;4.30;4.20;;;;;;;;;;4954074;29;20465;-83